createdAt,value
2022-08-02T00:00:41.132Z,0.00
2022-08-02T00:01:41.163Z,0.00
2022-08-02T00:02:41.122Z,0.00
2022-08-02T00:03:41.125Z,0.00
2022-08-02T00:04:41.122Z,0.00
2022-08-02T00:05:41.115Z,0.00
2022-08-02T00:06:41.112Z,0.00
2022-08-02T00:07:41.572Z,0.00
2022-08-02T00:08:41.106Z,0.00
2022-08-02T00:09:41.108Z,0.00
2022-08-02T00:10:41.103Z,0.00
2022-08-02T00:11:43.173Z,0.00
2022-08-02T00:12:41.096Z,0.00
2022-08-02T00:13:41.093Z,0.00
2022-08-02T00:14:41.095Z,0.00
2022-08-02T00:15:41.089Z,0.00
2022-08-02T00:16:41.082Z,0.00
2022-08-02T00:17:41.082Z,0.00
2022-08-02T00:18:41.081Z,0.00
2022-08-02T00:19:41.076Z,0.00
2022-08-02T00:20:41.077Z,0.00
2022-08-02T00:21:41.089Z,0.00
2022-08-02T00:22:41.069Z,0.00
2022-08-02T00:24:03.318Z,0.00
2022-08-02T00:24:41.063Z,0.00
2022-08-02T00:25:55.352Z,0.00
2022-08-02T00:26:41.057Z,0.00
2022-08-02T00:27:41.056Z,0.00
2022-08-02T00:28:41.051Z,0.00
2022-08-02T00:29:42.691Z,0.00
2022-08-02T00:30:41.049Z,0.00
2022-08-02T00:31:41.045Z,0.00
2022-08-02T00:32:41.038Z,0.00
2022-08-02T00:34:26.164Z,0.00
2022-08-02T00:34:41.035Z,0.00
2022-08-02T00:35:41.044Z,0.00
2022-08-02T00:36:41.030Z,0.00
2022-08-02T00:37:41.027Z,0.00
2022-08-02T00:38:41.027Z,0.00
2022-08-02T00:39:41.030Z,0.00
2022-08-02T00:40:41.020Z,0.00
2022-08-02T00:41:41.019Z,0.00
2022-08-02T00:42:41.017Z,0.00
2022-08-02T00:43:41.014Z,0.00
2022-08-02T00:44:41.008Z,0.00
2022-08-02T00:46:03.486Z,0.00
2022-08-02T00:46:41.005Z,0.00
2022-08-02T00:47:41.007Z,0.00
2022-08-02T00:48:43.099Z,0.00
2022-08-02T00:49:41.125Z,0.00
2022-08-02T00:50:40.993Z,0.00
2022-08-02T00:51:40.991Z,0.00
2022-08-02T00:52:40.986Z,0.00
2022-08-02T00:53:40.982Z,0.00
2022-08-02T00:54:40.981Z,0.00
2022-08-02T00:55:40.979Z,0.00
2022-08-02T00:56:40.981Z,0.00
2022-08-02T00:57:40.974Z,0.00
2022-08-02T00:58:40.971Z,0.00
2022-08-02T00:59:40.967Z,0.00
2022-08-02T01:00:40.975Z,0.00
2022-08-02T01:01:56.235Z,0.00
2022-08-02T01:02:40.966Z,0.00
2022-08-02T01:03:40.957Z,0.00
2022-08-02T01:04:40.955Z,0.00
2022-08-02T01:06:10.182Z,0.00
2022-08-02T01:06:40.950Z,0.00
2022-08-02T01:07:40.947Z,0.00
2022-08-02T01:08:40.944Z,0.00
2022-08-02T01:09:40.937Z,0.00
2022-08-02T01:10:40.942Z,0.00
2022-08-02T01:11:40.936Z,0.00
2022-08-02T01:12:40.938Z,0.00
2022-08-02T01:13:40.934Z,0.00
2022-08-02T01:14:40.942Z,0.00
2022-08-02T01:15:40.927Z,0.00
2022-08-02T01:16:40.925Z,0.00
2022-08-02T01:17:40.920Z,0.00
2022-08-02T01:18:40.918Z,0.00
2022-08-02T01:19:40.915Z,0.00
2022-08-02T01:20:40.910Z,0.00
2022-08-02T01:21:40.911Z,0.00
2022-08-02T01:23:00.641Z,0.00
2022-08-02T01:23:40.905Z,0.00
2022-08-02T01:24:40.902Z,0.00
2022-08-02T01:25:40.908Z,0.00
2022-08-02T01:26:40.897Z,0.00
2022-08-02T01:27:40.893Z,0.00
2022-08-02T01:28:40.892Z,0.00
2022-08-02T01:29:40.886Z,0.00
2022-08-02T01:30:40.889Z,0.00
2022-08-02T01:31:40.882Z,0.00
2022-08-02T01:32:40.881Z,0.00
2022-08-02T01:33:40.877Z,0.00
2022-08-02T01:34:40.873Z,0.00
2022-08-02T01:35:50.623Z,0.00
2022-08-02T01:36:40.867Z,0.00
2022-08-02T01:37:40.865Z,0.00
2022-08-02T01:38:40.865Z,0.00
2022-08-02T01:39:40.858Z,0.00
2022-08-02T01:40:40.860Z,0.00
2022-08-02T01:41:40.855Z,0.00
2022-08-02T01:42:40.853Z,0.00
2022-08-02T01:43:40.856Z,0.00
2022-08-02T01:44:40.910Z,0.00
2022-08-02T01:45:40.841Z,0.00
2022-08-02T01:46:40.842Z,0.00
2022-08-02T01:47:40.839Z,0.00
2022-08-02T01:48:40.836Z,0.00
2022-08-02T01:49:40.970Z,0.00
2022-08-02T01:50:40.831Z,0.00
2022-08-02T01:51:40.832Z,0.00
2022-08-02T01:52:40.828Z,0.00
2022-08-02T01:53:40.823Z,0.00
2022-08-02T01:54:40.822Z,0.00
2022-08-02T01:55:57.698Z,0.00
2022-08-02T01:56:40.819Z,0.00
2022-08-02T01:57:41.982Z,0.00
2022-08-02T01:58:40.814Z,0.00
2022-08-02T01:59:40.809Z,0.00
2022-08-02T02:00:40.808Z,0.00
2022-08-02T02:01:40.852Z,0.00
2022-08-02T02:02:40.805Z,0.00
2022-08-02T02:03:41.597Z,0.00
2022-08-02T02:04:40.792Z,0.00
2022-08-02T02:05:40.794Z,0.00
2022-08-02T02:06:40.788Z,0.00
2022-08-02T02:07:40.787Z,0.00
2022-08-02T02:08:40.783Z,0.00
2022-08-02T02:09:50.451Z,0.00
2022-08-02T02:10:40.778Z,0.00
2022-08-02T02:12:05.182Z,0.00
2022-08-02T02:12:40.773Z,0.00
2022-08-02T02:13:40.768Z,0.00
2022-08-02T02:14:40.768Z,0.00
2022-08-02T02:15:40.845Z,0.00
2022-08-02T02:16:40.765Z,0.00
2022-08-02T02:18:10.658Z,0.00
2022-08-02T02:18:40.757Z,0.00
2022-08-02T02:19:40.756Z,0.00
2022-08-02T02:20:40.750Z,0.00
2022-08-02T02:21:41.470Z,0.00
2022-08-02T02:22:40.743Z,0.00
2022-08-02T02:23:40.833Z,0.00
2022-08-02T02:24:40.740Z,0.00
2022-08-02T02:25:40.732Z,0.00
2022-08-02T02:26:40.737Z,0.00
2022-08-02T02:27:40.735Z,0.00
2022-08-02T02:28:40.727Z,0.00
2022-08-02T02:29:40.723Z,0.00
2022-08-02T02:30:40.723Z,0.00
2022-08-02T02:31:40.717Z,0.00
2022-08-02T02:32:40.715Z,0.00
2022-08-02T02:33:40.714Z,0.00
2022-08-02T02:34:40.709Z,0.00
2022-08-02T02:35:40.708Z,0.00
2022-08-02T02:36:40.705Z,0.00
2022-08-02T02:37:40.701Z,0.00
2022-08-02T02:38:40.700Z,0.00
2022-08-02T02:39:40.694Z,0.00
2022-08-02T02:40:40.691Z,0.00
2022-08-02T02:41:40.689Z,0.00
2022-08-02T02:42:41.182Z,0.00
2022-08-02T02:43:40.683Z,0.00
2022-08-02T02:44:40.680Z,0.00
2022-08-02T02:45:40.679Z,0.00
2022-08-02T02:46:40.672Z,0.00
2022-08-02T02:47:41.823Z,0.00
2022-08-02T02:48:40.667Z,0.00
2022-08-02T02:49:40.663Z,0.00
2022-08-02T02:50:40.662Z,0.00
2022-08-02T02:51:40.667Z,4.00
2022-08-02T02:52:40.653Z,4.00
2022-08-02T02:54:31.939Z,0.00
2022-08-02T02:54:40.650Z,4.00
2022-08-02T02:55:40.646Z,4.00
2022-08-02T02:56:40.643Z,4.00
2022-08-02T02:57:40.640Z,4.00
2022-08-02T02:58:40.650Z,4.00
2022-08-02T02:59:48.959Z,4.00
2022-08-02T03:00:40.670Z,4.00
2022-08-02T03:01:56.865Z,8.00
2022-08-02T03:02:40.623Z,4.00
2022-08-02T03:03:40.621Z,8.00
2022-08-02T03:04:57.026Z,12.00
2022-08-02T03:05:40.615Z,12.00
2022-08-02T03:06:40.611Z,12.00
2022-08-02T03:07:40.608Z,12.00
2022-08-02T03:08:40.608Z,16.00
2022-08-02T03:09:40.602Z,20.00
2022-08-02T03:10:40.597Z,20.00
2022-08-02T03:11:40.599Z,24.00
2022-08-02T03:12:40.589Z,24.00
2022-08-02T03:13:40.587Z,28.00
2022-08-02T03:14:40.586Z,32.00
2022-08-02T03:15:40.585Z,32.00
2022-08-02T03:16:40.576Z,40.00
2022-08-02T03:17:40.570Z,44.00
2022-08-02T03:18:40.572Z,52.00
2022-08-02T03:19:40.567Z,60.00
2022-08-02T03:20:40.564Z,68.00
2022-08-02T03:21:40.559Z,76.00
2022-08-02T03:22:40.556Z,80.00
2022-08-02T03:23:40.554Z,88.00
2022-08-02T03:24:40.549Z,92.00
2022-08-02T03:25:40.546Z,104.00
2022-08-02T03:26:40.543Z,108.00
2022-08-02T03:27:40.542Z,116.00
2022-08-02T03:28:40.536Z,128.00
2022-08-02T03:29:40.532Z,140.00
2022-08-02T03:30:40.532Z,152.00
2022-08-02T03:31:40.527Z,164.00
2022-08-02T03:32:40.526Z,184.00
2022-08-02T03:33:40.521Z,196.00
2022-08-02T03:34:40.516Z,212.00
2022-08-02T03:35:40.508Z,232.00
2022-08-02T03:36:40.509Z,244.00
2022-08-02T03:37:40.505Z,264.00
2022-08-02T03:38:40.501Z,288.00
2022-08-02T03:39:51.091Z,324.00
2022-08-02T03:40:40.496Z,336.00
2022-08-02T03:41:40.490Z,344.00
2022-08-02T03:42:40.487Z,372.00
2022-08-02T03:43:40.479Z,388.00
2022-08-02T03:44:40.479Z,412.00
2022-08-02T03:45:40.476Z,436.00
2022-08-02T03:46:40.476Z,464.00
2022-08-02T03:47:40.471Z,500.00
2022-08-02T03:48:40.465Z,544.00
2022-08-02T03:49:40.550Z,572.00
2022-08-02T03:50:40.459Z,616.00
2022-08-02T03:51:40.456Z,600.00
2022-08-02T03:52:40.452Z,580.00
2022-08-02T03:53:40.449Z,588.00
2022-08-02T03:54:45.602Z,632.00
2022-08-02T03:55:40.439Z,708.00
2022-08-02T03:56:40.442Z,704.00
2022-08-02T03:57:40.437Z,672.00
2022-08-02T03:58:40.427Z,688.00
2022-08-02T03:59:40.430Z,732.00
2022-08-02T04:00:40.454Z,744.00
2022-08-02T04:01:40.424Z,772.00
2022-08-02T04:02:40.419Z,780.00
2022-08-02T04:03:40.417Z,760.00
2022-08-02T04:04:40.413Z,760.00
2022-08-02T04:06:03.920Z,764.00
2022-08-02T04:06:41.761Z,832.00
2022-08-02T04:08:32.681Z,868.00
2022-08-02T04:08:40.400Z,844.00
2022-08-02T04:09:40.404Z,852.00
2022-08-02T04:10:40.395Z,872.00
2022-08-02T04:11:40.391Z,844.00
2022-08-02T04:12:40.387Z,876.00
2022-08-02T04:13:40.381Z,944.00
2022-08-02T04:14:40.384Z,952.00
2022-08-02T04:15:40.379Z,960.00
2022-08-02T04:16:40.374Z,1116.00
2022-08-02T04:17:40.370Z,1248.00
2022-08-02T04:18:40.372Z,1256.00
2022-08-02T04:19:40.366Z,1224.00
2022-08-02T04:20:40.362Z,1352.00
2022-08-02T04:21:49.267Z,1572.00
2022-08-02T04:22:40.366Z,1620.00
2022-08-02T04:23:40.355Z,1440.00
2022-08-02T04:24:40.351Z,1340.00
2022-08-02T04:25:41.343Z,1532.00
2022-08-02T04:26:40.343Z,1628.00
2022-08-02T04:28:15.650Z,1632.00
2022-08-02T04:28:40.385Z,1756.00
2022-08-02T04:29:43.940Z,1752.00
2022-08-02T04:30:40.329Z,1704.00
2022-08-02T04:31:40.327Z,1740.00
2022-08-02T04:32:40.321Z,1736.00
2022-08-02T04:33:40.324Z,2012.00
2022-08-02T04:34:40.321Z,2164.00
2022-08-02T04:35:40.320Z,3608.00
2022-08-02T04:36:40.317Z,3628.00
2022-08-02T04:38:08.837Z,3540.00
2022-08-02T04:38:40.308Z,2604.00
2022-08-02T04:39:40.303Z,2220.00
2022-08-02T04:40:40.307Z,2304.00
2022-08-02T04:41:43.723Z,2300.00
2022-08-02T04:42:40.291Z,2232.00
2022-08-02T04:43:40.291Z,2252.00
2022-08-02T04:44:40.286Z,2276.00
2022-08-02T04:45:40.283Z,2280.00
2022-08-02T04:46:40.280Z,2316.00
2022-08-02T04:48:03.680Z,2444.00
2022-08-02T04:48:40.275Z,2484.00
2022-08-02T04:49:40.383Z,2528.00
2022-08-02T04:50:40.267Z,2580.00
2022-08-02T04:51:40.268Z,3288.00
2022-08-02T04:52:45.446Z,3852.00
2022-08-02T04:53:40.260Z,4440.00
2022-08-02T04:54:40.257Z,4396.00
2022-08-02T04:55:40.254Z,4396.00
2022-08-02T04:56:40.255Z,3456.00
2022-08-02T04:57:40.247Z,3268.00
2022-08-02T04:58:41.005Z,3260.00
2022-08-02T04:59:40.243Z,3016.00
2022-08-02T05:00:40.295Z,3756.00
2022-08-02T05:01:40.240Z,3792.00
2022-08-02T05:02:40.237Z,3364.00
2022-08-02T05:03:40.233Z,5236.00
2022-08-02T05:04:40.230Z,5256.00
2022-08-02T05:05:40.226Z,5348.00
2022-08-02T05:06:40.221Z,5428.00
2022-08-02T05:07:40.224Z,5456.00
2022-08-02T05:08:40.219Z,4912.00
2022-08-02T05:09:40.218Z,5580.00
2022-08-02T05:10:40.216Z,5648.00
2022-08-02T05:11:40.213Z,5792.00
2022-08-02T05:12:40.210Z,5884.00
2022-08-02T05:13:58.744Z,5888.00
2022-08-02T05:14:40.207Z,6056.00
2022-08-02T05:15:40.206Z,6052.00
2022-08-02T05:16:40.203Z,6148.00
2022-08-02T05:17:47.586Z,6164.00
2022-08-02T05:18:40.199Z,5872.00
2022-08-02T05:19:40.199Z,5908.00
2022-08-02T05:20:40.198Z,5648.00
2022-08-02T05:21:40.197Z,5768.00
2022-08-02T05:22:40.198Z,5980.00
2022-08-02T05:23:40.196Z,6096.00
2022-08-02T05:24:40.193Z,6260.00
2022-08-02T05:25:40.192Z,5952.00
2022-08-02T05:26:40.195Z,5936.00
2022-08-02T05:27:40.199Z,5448.00
2022-08-02T05:28:40.190Z,6120.00
2022-08-02T05:29:40.191Z,6308.00
2022-08-02T05:30:40.191Z,6312.00
2022-08-02T05:31:40.192Z,6540.00
2022-08-02T05:32:40.190Z,6712.00
2022-08-02T05:33:40.187Z,6768.00
2022-08-02T05:34:40.194Z,6856.00
2022-08-02T05:35:40.190Z,6936.00
2022-08-02T05:36:42.176Z,6976.00
2022-08-02T05:37:40.189Z,7032.00
2022-08-02T05:38:40.188Z,7104.00
2022-08-02T05:39:55.602Z,7144.00
2022-08-02T05:40:54.586Z,7172.00
2022-08-02T05:41:40.188Z,7224.00
2022-08-02T05:42:40.191Z,7244.00
2022-08-02T05:43:40.190Z,7304.00
2022-08-02T05:44:40.190Z,7356.00
2022-08-02T05:45:40.188Z,6840.00
2022-08-02T05:46:40.191Z,7152.00
2022-08-02T05:47:40.195Z,7292.00
2022-08-02T05:48:40.195Z,7312.00
2022-08-02T05:49:40.253Z,7296.00
2022-08-02T05:50:40.196Z,7264.00
2022-08-02T05:51:40.199Z,7340.00
2022-08-02T05:52:40.200Z,7444.00
2022-08-02T05:53:40.249Z,7484.00
2022-08-02T05:54:40.208Z,7524.00
2022-08-02T05:55:40.203Z,5608.00
2022-08-02T05:56:40.202Z,6760.00
2022-08-02T05:57:43.407Z,7456.00
2022-08-02T05:58:40.206Z,7736.00
2022-08-02T05:59:40.210Z,7940.00
2022-08-02T06:00:40.209Z,8000.00
2022-08-02T06:01:40.351Z,8108.00
2022-08-02T06:02:40.213Z,8204.00
2022-08-02T06:03:40.214Z,8416.00
2022-08-02T06:04:40.217Z,8620.00
2022-08-02T06:05:40.218Z,8992.00
2022-08-02T06:06:40.222Z,9760.00
2022-08-02T06:07:40.222Z,12540.00
2022-08-02T06:08:42.510Z,18176.00
2022-08-02T06:09:40.229Z,23328.00
2022-08-02T06:10:40.234Z,27680.00
2022-08-02T06:11:40.237Z,29184.00
2022-08-02T06:12:40.235Z,27744.00
2022-08-02T06:13:40.240Z,24864.00
2022-08-02T06:14:40.247Z,25312.00
2022-08-02T06:15:52.857Z,24768.00
2022-08-02T06:16:41.979Z,26016.00
2022-08-02T06:17:41.940Z,25280.00
2022-08-02T06:18:40.248Z,22176.00
2022-08-02T06:19:51.760Z,24512.00
2022-08-02T06:20:40.258Z,29568.00
2022-08-02T06:22:34.575Z,29216.00
2022-08-02T06:22:40.462Z,24928.00
2022-08-02T06:23:40.271Z,25984.00
2022-08-02T06:24:40.271Z,27520.00
2022-08-02T06:25:50.407Z,24832.00
2022-08-02T06:26:40.276Z,26560.00
2022-08-02T06:27:40.278Z,25120.00
2022-08-02T06:28:40.280Z,24128.00
2022-08-02T06:29:40.287Z,23616.00
2022-08-02T06:30:40.294Z,23680.00
2022-08-02T06:31:40.305Z,23936.00
2022-08-02T06:32:40.298Z,25376.00
2022-08-02T06:33:40.303Z,25088.00
2022-08-02T06:34:40.307Z,23264.00
2022-08-02T06:35:40.309Z,26368.00
2022-08-02T06:36:40.312Z,22048.00
2022-08-02T06:37:40.318Z,24832.00
2022-08-02T06:38:40.321Z,26240.00
2022-08-02T06:39:40.326Z,29472.00
2022-08-02T06:40:40.328Z,24512.00
2022-08-02T06:41:40.335Z,31008.00
2022-08-02T06:42:40.332Z,30048.00
2022-08-02T06:43:40.351Z,28384.00
2022-08-02T06:44:48.989Z,31616.00
2022-08-02T06:45:40.347Z,36320.00
2022-08-02T06:47:11.091Z,38528.00
2022-08-02T06:47:40.361Z,35648.00
2022-08-02T06:48:40.361Z,37216.00
2022-08-02T06:49:52.382Z,36800.00
2022-08-02T06:50:40.368Z,36000.00
2022-08-02T06:51:40.373Z,36576.00
2022-08-02T06:52:40.377Z,36128.00
2022-08-02T06:53:40.387Z,37248.00
2022-08-02T06:54:40.386Z,35392.00
2022-08-02T06:55:43.996Z,27904.00
2022-08-02T06:56:40.398Z,29056.00
2022-08-02T06:57:40.405Z,29760.00
2022-08-02T06:58:40.403Z,26560.00
2022-08-02T06:59:40.409Z,28352.00
2022-08-02T07:00:40.411Z,29120.00
2022-08-02T07:01:40.457Z,31936.00
2022-08-02T07:02:40.455Z,36704.00
2022-08-02T07:03:40.427Z,39424.00
2022-08-02T07:04:40.432Z,40448.00
2022-08-02T07:05:40.436Z,35296.00
2022-08-02T07:06:40.441Z,31296.00
2022-08-02T07:07:40.445Z,30624.00
2022-08-02T07:08:40.457Z,43456.00
2022-08-02T07:09:56.603Z,42752.00
2022-08-02T07:10:40.460Z,39360.00
2022-08-02T07:11:40.469Z,32992.00
2022-08-02T07:12:40.468Z,36576.00
2022-08-02T07:13:40.477Z,33248.00
2022-08-02T07:14:40.481Z,30304.00
2022-08-02T07:15:40.487Z,36384.00
2022-08-02T07:16:40.487Z,36736.00
2022-08-02T07:17:40.494Z,40544.00
2022-08-02T07:18:40.497Z,51104.00
2022-08-02T07:19:40.504Z,47552.00
2022-08-02T07:20:40.506Z,52736.00
2022-08-02T07:21:56.743Z,55904.00
2022-08-02T07:22:40.515Z,54848.00
2022-08-02T07:23:40.524Z,48384.00
2022-08-02T07:24:40.534Z,50240.00
2022-08-02T07:26:03.979Z,51776.00
2022-08-02T07:27:01.540Z,55200.00
2022-08-02T07:27:40.542Z,51488.00
2022-08-02T07:28:40.544Z,48576.00
2022-08-02T07:29:46.502Z,49056.00
2022-08-02T07:30:40.555Z,45888.00
2022-08-02T07:31:40.564Z,43072.00
2022-08-02T07:32:40.567Z,46912.00
2022-08-02T07:33:43.297Z,49376.00
2022-08-02T07:34:40.576Z,45024.00
2022-08-02T07:35:40.579Z,42496.00
2022-08-02T07:36:40.586Z,46688.00
2022-08-02T07:37:55.660Z,54912.00
2022-08-02T07:38:40.598Z,57376.00
2022-08-02T07:39:40.601Z,56512.00
2022-08-02T07:40:40.607Z,58464.00
2022-08-02T07:41:40.613Z,54528.00
2022-08-02T07:42:40.622Z,49472.00
2022-08-02T07:43:40.626Z,49984.00
2022-08-02T07:44:40.631Z,53600.00
2022-08-02T07:45:45.665Z,53760.00
2022-08-02T07:46:40.644Z,59104.00
2022-08-02T07:47:40.645Z,59488.00
2022-08-02T07:48:40.652Z,56928.00
2022-08-02T07:49:40.686Z,55648.00
2022-08-02T07:50:40.665Z,52544.00
2022-08-02T07:51:40.675Z,50272.00
2022-08-02T07:52:40.722Z,51104.00
2022-08-02T07:53:50.635Z,48256.00
2022-08-02T07:54:40.689Z,47296.00
2022-08-02T07:55:40.900Z,53792.00
2022-08-02T07:56:40.708Z,53056.00
2022-08-02T07:57:45.782Z,54016.00
2022-08-02T07:58:40.712Z,53056.00
2022-08-02T07:59:40.718Z,56448.00
2022-08-02T08:00:40.725Z,57344.00
2022-08-02T08:01:40.790Z,56640.00
2022-08-02T08:02:40.736Z,61056.00
2022-08-02T08:03:40.745Z,69376.00
2022-08-02T08:04:40.751Z,72032.00
2022-08-02T08:05:40.782Z,68576.00
2022-08-02T08:06:40.756Z,64448.00
2022-08-02T08:07:40.775Z,64448.00
2022-08-02T08:08:40.801Z,69536.00
2022-08-02T08:09:40.775Z,72416.00
2022-08-02T08:10:40.788Z,70144.00
2022-08-02T08:11:40.796Z,70272.00
2022-08-02T08:12:40.806Z,69728.00
2022-08-02T08:13:40.801Z,57888.00
2022-08-02T08:14:40.809Z,20064.00
2022-08-02T08:15:40.814Z,5116.00
2022-08-02T08:16:40.822Z,4796.00
2022-08-02T08:17:40.827Z,4576.00
2022-08-02T08:18:40.832Z,4352.00
2022-08-02T08:19:50.847Z,4220.00
2022-08-02T08:20:40.846Z,4208.00
2022-08-02T08:21:40.853Z,4168.00
2022-08-02T08:22:40.858Z,4176.00
2022-08-02T08:23:40.865Z,4148.00
2022-08-02T08:24:40.869Z,4128.00
2022-08-02T08:25:41.334Z,4084.00
2022-08-02T08:26:40.885Z,4064.00
2022-08-02T08:27:40.891Z,4056.00
2022-08-02T08:28:40.893Z,4020.00
2022-08-02T08:29:40.899Z,4012.00
2022-08-02T08:30:40.906Z,4008.00
2022-08-02T08:31:40.908Z,4012.00
2022-08-02T08:32:40.914Z,4040.00
2022-08-02T08:33:40.917Z,4068.00
2022-08-02T08:34:40.921Z,4060.00
2022-08-02T08:35:40.928Z,4056.00
2022-08-02T08:36:40.929Z,4032.00
2022-08-02T08:37:40.939Z,4032.00
2022-08-02T08:38:40.940Z,4088.00
2022-08-02T08:39:42.046Z,4108.00
2022-08-02T08:40:40.947Z,4116.00
2022-08-02T08:41:40.951Z,4132.00
2022-08-02T08:42:40.957Z,4208.00
2022-08-02T08:43:40.956Z,4652.00
2022-08-02T08:44:41.145Z,31040.00
2022-08-02T08:45:40.963Z,72640.00
2022-08-02T08:46:40.965Z,84448.00
2022-08-02T08:47:40.977Z,89216.00
2022-08-02T08:48:40.972Z,93984.00
2022-08-02T08:49:52.854Z,96320.00
2022-08-02T08:50:40.977Z,55744.00
2022-08-02T08:51:40.981Z,16480.00
2022-08-02T08:52:40.982Z,5404.00
2022-08-02T08:53:41.136Z,4912.00
2022-08-02T08:54:41.061Z,4580.00
2022-08-02T08:55:40.991Z,4416.00
2022-08-02T08:56:40.992Z,4476.00
2022-08-02T08:57:40.998Z,4644.00
2022-08-02T08:58:41.003Z,4704.00
2022-08-02T08:59:41.006Z,4764.00
2022-08-02T09:00:41.006Z,5384.00
2022-08-02T09:01:49.809Z,5076.00
2022-08-02T09:02:41.011Z,4892.00
2022-08-02T09:03:41.013Z,4584.00
2022-08-02T09:04:41.021Z,4228.00
2022-08-02T09:05:41.021Z,4036.00
2022-08-02T09:06:41.024Z,3988.00
2022-08-02T09:07:41.027Z,4260.00
2022-08-02T09:08:41.030Z,4196.00
2022-08-02T09:09:41.035Z,4652.00
2022-08-02T09:10:41.040Z,4832.00
2022-08-02T09:11:41.042Z,4432.00
2022-08-02T09:12:41.046Z,4180.00
2022-08-02T09:13:46.138Z,4252.00
2022-08-02T09:14:41.049Z,4252.00
2022-08-02T09:15:41.059Z,4268.00
2022-08-02T09:16:41.053Z,4468.00
2022-08-02T09:17:41.058Z,4572.00
2022-08-02T09:18:41.060Z,4204.00
2022-08-02T09:19:46.274Z,4068.00
2022-08-02T09:20:41.064Z,4136.00
2022-08-02T09:21:41.066Z,4164.00
2022-08-02T09:22:41.068Z,4312.00
2022-08-02T09:23:41.074Z,4396.00
2022-08-02T09:24:41.070Z,4556.00
2022-08-02T09:25:41.077Z,4456.00
2022-08-02T09:26:41.080Z,4424.00
2022-08-02T09:27:41.081Z,4392.00
2022-08-02T09:28:41.080Z,4488.00
2022-08-02T09:30:05.251Z,4432.00
2022-08-02T09:30:41.088Z,4280.00
2022-08-02T09:31:49.411Z,4148.00
2022-08-02T09:32:41.089Z,4180.00
2022-08-02T09:33:41.092Z,4256.00
2022-08-02T09:34:41.093Z,4200.00
2022-08-02T09:36:05.235Z,4160.00
2022-08-02T09:36:41.098Z,4140.00
2022-08-02T09:37:42.044Z,4244.00
2022-08-02T09:38:41.102Z,4516.00
2022-08-02T09:39:41.103Z,4404.00
2022-08-02T09:40:41.107Z,4248.00
2022-08-02T09:41:41.107Z,4260.00
2022-08-02T09:42:41.111Z,4280.00
2022-08-02T09:44:03.220Z,4220.00
2022-08-02T09:44:41.111Z,4164.00
2022-08-02T09:45:41.113Z,4164.00
2022-08-02T09:46:41.117Z,4160.00
2022-08-02T09:47:41.116Z,4124.00
2022-08-02T09:48:41.117Z,4160.00
2022-08-02T09:49:41.203Z,3752.00
2022-08-02T09:50:41.123Z,4000.00
2022-08-02T09:51:41.121Z,4268.00
2022-08-02T09:52:43.697Z,4676.00
2022-08-02T09:53:41.122Z,4712.00
2022-08-02T09:54:41.130Z,4856.00
2022-08-02T09:55:41.131Z,5192.00
2022-08-02T09:56:41.135Z,5312.00
2022-08-02T09:57:41.131Z,5220.00
2022-08-02T09:58:41.135Z,4708.00
2022-08-02T09:59:41.134Z,4216.00
2022-08-02T10:00:52.541Z,4624.00
2022-08-02T10:01:46.997Z,4388.00
2022-08-02T10:02:41.165Z,4068.00
2022-08-02T10:03:41.143Z,4404.00
2022-08-02T10:04:52.326Z,4656.00
2022-08-02T10:05:43.645Z,4556.00
2022-08-02T10:06:41.145Z,4320.00
2022-08-02T10:07:41.145Z,4400.00
2022-08-02T10:08:41.146Z,4368.00
2022-08-02T10:09:46.384Z,4540.00
2022-08-02T10:10:41.150Z,4568.00
2022-08-02T10:11:41.153Z,4368.00
2022-08-02T10:12:41.153Z,4244.00
2022-08-02T10:13:41.156Z,4212.00
2022-08-02T10:14:41.157Z,4464.00
2022-08-02T10:15:50.281Z,4672.00
2022-08-02T10:16:41.158Z,4816.00
2022-08-02T10:17:41.159Z,5120.00
2022-08-02T10:18:41.709Z,5260.00
2022-08-02T10:20:02.754Z,4976.00
2022-08-02T10:20:41.164Z,4572.00
2022-08-02T10:21:46.304Z,4104.00
2022-08-02T10:22:41.167Z,3940.00
2022-08-02T10:23:41.166Z,4408.00
2022-08-02T10:24:48.285Z,4076.00
2022-08-02T10:25:41.168Z,4512.00
2022-08-02T10:26:41.174Z,5092.00
2022-08-02T10:28:04.228Z,6944.00
2022-08-02T10:28:41.168Z,6596.00
2022-08-02T10:29:50.484Z,6028.00
2022-08-02T10:30:41.175Z,5520.00
2022-08-02T10:31:41.179Z,5488.00
2022-08-02T10:32:41.180Z,5372.00
2022-08-02T10:33:41.192Z,5520.00
2022-08-02T10:34:41.182Z,5536.00
2022-08-02T10:35:41.184Z,5244.00
2022-08-02T10:36:41.183Z,4800.00
2022-08-02T10:37:41.184Z,4476.00
2022-08-02T10:38:41.190Z,4292.00
2022-08-02T10:39:41.189Z,4032.00
2022-08-02T10:40:41.189Z,3740.00
2022-08-02T10:41:41.189Z,3600.00
2022-08-02T10:42:41.194Z,3724.00
2022-08-02T10:43:41.193Z,3844.00
2022-08-02T10:44:41.194Z,4068.00
2022-08-02T10:45:41.196Z,4896.00
2022-08-02T10:46:41.201Z,5808.00
2022-08-02T10:47:41.200Z,5864.00
2022-08-02T10:48:41.201Z,4636.00
2022-08-02T10:49:41.297Z,3932.00
2022-08-02T10:50:41.205Z,3824.00
2022-08-02T10:51:41.273Z,3828.00
2022-08-02T10:52:41.222Z,3832.00
2022-08-02T10:53:41.209Z,3956.00
2022-08-02T10:54:41.210Z,3856.00
2022-08-02T10:55:41.214Z,3484.00
2022-08-02T10:56:41.213Z,3192.00
2022-08-02T10:57:41.214Z,2992.00
2022-08-02T10:58:41.218Z,2848.00
2022-08-02T10:59:41.218Z,2792.00
2022-08-02T11:00:41.267Z,2784.00
2022-08-02T11:01:41.259Z,2776.00
2022-08-02T11:02:41.228Z,2796.00
2022-08-02T11:03:41.260Z,2804.00
2022-08-02T11:04:41.233Z,3372.00
2022-08-02T11:05:43.042Z,3224.00
2022-08-02T11:06:41.230Z,2644.00
2022-08-02T11:07:41.232Z,2580.00
2022-08-02T11:08:41.237Z,2568.00
2022-08-02T11:09:41.238Z,2568.00
2022-08-02T11:10:41.234Z,2536.00
2022-08-02T11:11:53.761Z,2556.00
2022-08-02T11:12:41.236Z,2536.00
2022-08-02T11:13:41.237Z,2552.00
2022-08-02T11:14:41.240Z,2544.00
2022-08-02T11:15:41.244Z,2580.00
2022-08-02T11:16:41.245Z,2604.00
2022-08-02T11:17:41.267Z,2596.00
2022-08-02T11:18:41.248Z,2564.00
2022-08-02T11:19:41.531Z,2552.00
2022-08-02T11:20:41.249Z,2496.00
2022-08-02T11:21:41.250Z,2520.00
2022-08-02T11:22:41.251Z,2528.00
2022-08-02T11:23:44.755Z,2568.00
2022-08-02T11:24:41.255Z,3268.00
2022-08-02T11:26:03.315Z,5172.00
2022-08-02T11:26:41.261Z,5716.00
2022-08-02T11:27:41.260Z,7012.00
2022-08-02T11:28:41.257Z,8100.00
2022-08-02T11:29:41.268Z,5900.00
2022-08-02T11:30:41.264Z,3704.00
2022-08-02T11:31:41.308Z,3164.00
2022-08-02T11:32:41.263Z,2132.00
2022-08-02T11:33:41.272Z,2088.00
2022-08-02T11:34:41.269Z,2584.00
2022-08-02T11:35:41.269Z,2652.00
2022-08-02T11:36:41.274Z,2704.00
2022-08-02T11:37:41.274Z,2776.00
2022-08-02T11:38:41.276Z,2784.00
2022-08-02T11:39:41.277Z,2776.00
2022-08-02T11:40:41.274Z,2796.00
2022-08-02T11:41:47.016Z,2836.00
2022-08-02T11:42:41.277Z,2840.00
2022-08-02T11:43:41.279Z,2848.00
2022-08-02T11:44:41.282Z,2880.00
2022-08-02T11:45:41.282Z,2908.00
2022-08-02T11:46:41.284Z,2960.00
2022-08-02T11:47:41.294Z,3144.00
2022-08-02T11:48:41.289Z,3172.00
2022-08-02T11:49:41.399Z,2504.00
2022-08-02T11:50:41.290Z,3028.00
2022-08-02T11:51:42.479Z,2944.00
2022-08-02T11:52:41.285Z,2888.00
2022-08-02T11:53:41.290Z,2812.00
2022-08-02T11:54:41.293Z,2712.00
2022-08-02T11:55:41.292Z,2644.00
2022-08-02T11:56:41.295Z,2620.00
2022-08-02T11:58:02.982Z,2556.00
2022-08-02T11:58:41.847Z,2452.00
2022-08-02T11:59:41.299Z,2360.00
2022-08-02T12:00:41.302Z,2328.00
2022-08-02T12:01:45.013Z,2316.00
2022-08-02T12:02:41.304Z,2312.00
2022-08-02T12:03:41.358Z,2316.00
2022-08-02T12:04:41.309Z,2308.00
2022-08-02T12:06:04.765Z,2312.00
2022-08-02T12:06:41.309Z,2336.00
2022-08-02T12:07:46.054Z,2352.00
2022-08-02T12:08:41.311Z,2388.00
2022-08-02T12:09:41.488Z,2368.00
2022-08-02T12:10:41.318Z,2344.00
2022-08-02T12:11:41.324Z,2304.00
2022-08-02T12:12:41.324Z,2312.00
2022-08-02T12:13:41.317Z,2304.00
2022-08-02T12:14:41.320Z,2304.00
2022-08-02T12:15:41.323Z,2328.00
2022-08-02T12:16:41.326Z,2324.00
2022-08-02T12:17:41.323Z,2312.00
2022-08-02T12:18:41.326Z,2324.00
2022-08-02T12:19:41.326Z,2328.00
2022-08-02T12:20:41.328Z,2316.00
2022-08-02T12:21:41.328Z,2332.00